Warwick, Georgia
Current Conditions -  °F | °C
As of 1:35 PM on Sunday 21 Dec 2014 (Local Time) from KCKF Reporting Station
Haze Haze  
Wind Chill: 53°   Ceiling: 600
Heat Index: 53°   Visibility: 2.5mi
Dew Point: 50°   Wind: 6mph
Humidity: 92%   Direction: 60°ENE
Pressure: 30.12"   Gusts: NA
Location:  31.83°N, 83.92°W
Report Text: KCKF 211835Z AUTO 06005KT 2 1/2SM BR OVC006 12/10 A3012 RMK AO2 T01150102
Loading
Personal Weather Stations






























Interactive Weather Map New forecast layout! Learn more

10-Day Weather Forecast

Advertisements
Track Severe Weather on mobile